sensor_id;sensor_type;location;lat;lon;timestamp;P1;durP1;ratioP1;P2;durP2;ratioP2
84293;SDS011;74463;51.182;3.210;2024-01-30T00:01:07;12.93;;;9.35;;
84293;SDS011;74463;51.182;3.210;2024-01-30T00:03:36;18.48;;;10.02;;
84293;SDS011;74463;51.182;3.210;2024-01-30T00:08:31;14.15;;;8.65;;
84293;SDS011;74463;51.182;3.210;2024-01-30T00:10:59;13.98;;;10.00;;
84293;SDS011;74463;51.182;3.210;2024-01-30T00:13:27;14.37;;;9.03;;
84293;SDS011;74463;51.182;3.210;2024-01-30T00:15:55;14.80;;;8.55;;
84293;SDS011;74463;51.182;3.210;2024-01-30T00:18:23;15.45;;;10.10;;
84293;SDS011;74463;51.182;3.210;2024-01-30T00:20:51;13.82;;;8.55;;
84293;SDS011;74463;51.182;3.210;2024-01-30T00:25:46;12.50;;;8.65;;
84293;SDS011;74463;51.182;3.210;2024-01-30T00:28:14;16.33;;;8.82;;
84293;SDS011;74463;51.182;3.210;2024-01-30T00:30:42;16.75;;;9.40;;
84293;SDS011;74463;51.182;3.210;2024-01-30T00:33:09;17.63;;;9.65;;
84293;SDS011;74463;51.182;3.210;2024-01-30T00:35:37;18.20;;;9.27;;
84293;SDS011;74463;51.182;3.210;2024-01-30T00:38:06;13.70;;;8.80;;
84293;SDS011;74463;51.182;3.210;2024-01-30T00:43:01;14.07;;;8.45;;
84293;SDS011;74463;51.182;3.210;2024-01-30T00:45:29;14.48;;;8.50;;
84293;SDS011;74463;51.182;3.210;2024-01-30T00:47:57;14.38;;;8.85;;
84293;SDS011;74463;51.182;3.210;2024-01-30T00:50:24;13.90;;;8.90;;
84293;SDS011;74463;51.182;3.210;2024-01-30T00:52:52;15.10;;;8.57;;
84293;SDS011;74463;51.182;3.210;2024-01-30T00:55:21;15.18;;;9.02;;
84293;SDS011;74463;51.182;3.210;2024-01-30T00:57:49;15.05;;;8.82;;
84293;SDS011;74463;51.182;3.210;2024-01-30T01:00:17;12.63;;;8.48;;
84293;SDS011;74463;51.182;3.210;2024-01-30T01:05:13;17.25;;;9.13;;
84293;SDS011;74463;51.182;3.210;2024-01-30T01:07:41;16.02;;;9.35;;
84293;SDS011;74463;51.182;3.210;2024-01-30T01:10:09;15.52;;;9.10;;
84293;SDS011;74463;51.182;3.210;2024-01-30T01:12:40;13.57;;;8.65;;
84293;SDS011;74463;51.182;3.210;2024-01-30T01:17:35;13.25;;;8.68;;
84293;SDS011;74463;51.182;3.210;2024-01-30T01:20:04;17.75;;;8.75;;
84293;SDS011;74463;51.182;3.210;2024-01-30T01:22:33;14.65;;;8.90;;
84293;SDS011;74463;51.182;3.210;2024-01-30T01:25:01;15.73;;;9.20;;
84293;SDS011;74463;51.182;3.210;2024-01-30T01:27:29;16.42;;;8.88;;
84293;SDS011;74463;51.182;3.210;2024-01-30T01:32:26;14.95;;;8.68;;
84293;SDS011;74463;51.182;3.210;2024-01-30T01:34:54;12.77;;;8.32;;
84293;SDS011;74463;51.182;3.210;2024-01-30T01:37:22;14.30;;;8.60;;
84293;SDS011;74463;51.182;3.210;2024-01-30T01:39:52;15.20;;;8.95;;
84293;SDS011;74463;51.182;3.210;2024-01-30T01:42:19;16.52;;;9.38;;
84293;SDS011;74463;51.182;3.210;2024-01-30T01:44:47;14.83;;;8.60;;
84293;SDS011;74463;51.182;3.210;2024-01-30T01:47:17;14.13;;;8.63;;
84293;SDS011;74463;51.182;3.210;2024-01-30T01:49:45;13.77;;;8.57;;
84293;SDS011;74463;51.182;3.210;2024-01-30T01:52:12;14.30;;;9.05;;
84293;SDS011;74463;51.182;3.210;2024-01-30T01:54:40;13.88;;;8.25;;
84293;SDS011;74463;51.182;3.210;2024-01-30T01:57:08;13.10;;;8.95;;
84293;SDS011;74463;51.182;3.210;2024-01-30T01:59:36;15.05;;;8.68;;
84293;SDS011;74463;51.182;3.210;2024-01-30T02:02:04;16.48;;;8.70;;
84293;SDS011;74463;51.182;3.210;2024-01-30T02:04:36;15.60;;;9.07;;
84293;SDS011;74463;51.182;3.210;2024-01-30T02:09:31;15.00;;;9.65;;
84293;SDS011;74463;51.182;3.210;2024-01-30T02:11:58;14.63;;;9.43;;
84293;SDS011;74463;51.182;3.210;2024-01-30T02:14:26;13.15;;;8.07;;
84293;SDS011;74463;51.182;3.210;2024-01-30T02:16:54;16.00;;;9.60;;
84293;SDS011;74463;51.182;3.210;2024-01-30T02:19:21;15.25;;;9.10;;
84293;SDS011;74463;51.182;3.210;2024-01-30T02:21:50;17.42;;;9.45;;
84293;SDS011;74463;51.182;3.210;2024-01-30T02:24:18;13.23;;;8.90;;
84293;SDS011;74463;51.182;3.210;2024-01-30T02:26:46;16.10;;;8.85;;
84293;SDS011;74463;51.182;3.210;2024-01-30T02:29:13;15.32;;;9.07;;
84293;SDS011;74463;51.182;3.210;2024-01-30T02:31:40;15.25;;;9.20;;
84293;SDS011;74463;51.182;3.210;2024-01-30T02:34:08;15.45;;;9.48;;
84293;SDS011;74463;51.182;3.210;2024-01-30T02:36:35;15.20;;;8.45;;
84293;SDS011;74463;51.182;3.210;2024-01-30T02:39:04;18.88;;;9.88;;
84293;SDS011;74463;51.182;3.210;2024-01-30T02:43:59;17.60;;;9.80;;
84293;SDS011;74463;51.182;3.210;2024-01-30T02:46:26;12.98;;;9.10;;
84293;SDS011;74463;51.182;3.210;2024-01-30T02:48:54;15.93;;;8.77;;
84293;SDS011;74463;51.182;3.210;2024-01-30T02:51:21;14.20;;;8.85;;
84293;SDS011;74463;51.182;3.210;2024-01-30T02:53:49;17.65;;;9.43;;
84293;SDS011;74463;51.182;3.210;2024-01-30T02:56:18;15.77;;;8.77;;
84293;SDS011;74463;51.182;3.210;2024-01-30T02:58:45;14.88;;;9.05;;
84293;SDS011;74463;51.182;3.210;2024-01-30T03:01:12;16.65;;;9.32;;
84293;SDS011;74463;51.182;3.210;2024-01-30T03:03:40;12.32;;;8.73;;
84293;SDS011;74463;51.182;3.210;2024-01-30T03:06:08;15.60;;;9.50;;
84293;SDS011;74463;51.182;3.210;2024-01-30T03:08:36;15.13;;;9.07;;
84293;SDS011;74463;51.182;3.210;2024-01-30T03:11:03;17.55;;;9.70;;
84293;SDS011;74463;51.182;3.210;2024-01-30T03:13:32;12.65;;;9.27;;
84293;SDS011;74463;51.182;3.210;2024-01-30T03:15:59;16.40;;;9.65;;
84293;SDS011;74463;51.182;3.210;2024-01-30T03:18:28;15.77;;;10.23;;
84293;SDS011;74463;51.182;3.210;2024-01-30T03:20:55;15.07;;;9.52;;
84293;SDS011;74463;51.182;3.210;2024-01-30T03:23:22;16.98;;;9.45;;
84293;SDS011;74463;51.182;3.210;2024-01-30T03:25:50;17.88;;;9.77;;
84293;SDS011;74463;51.182;3.210;2024-01-30T03:28:17;15.57;;;9.80;;
84293;SDS011;74463;51.182;3.210;2024-01-30T03:30:46;16.10;;;9.73;;
84293;SDS011;74463;51.182;3.210;2024-01-30T03:33:14;15.25;;;9.35;;
84293;SDS011;74463;51.182;3.210;2024-01-30T03:35:41;16.73;;;10.15;;
84293;SDS011;74463;51.182;3.210;2024-01-30T03:38:09;15.07;;;9.57;;
84293;SDS011;74463;51.182;3.210;2024-01-30T03:40:36;15.93;;;9.60;;
84293;SDS011;74463;51.182;3.210;2024-01-30T03:43:04;16.52;;;9.20;;
84293;SDS011;74463;51.182;3.210;2024-01-30T03:45:31;14.43;;;8.85;;
84293;SDS011;74463;51.182;3.210;2024-01-30T03:48:00;12.43;;;8.70;;
84293;SDS011;74463;51.182;3.210;2024-01-30T03:50:27;15.32;;;9.50;;
84293;SDS011;74463;51.182;3.210;2024-01-30T03:52:55;19.48;;;9.48;;
84293;SDS011;74463;51.182;3.210;2024-01-30T03:55:22;15.25;;;9.65;;
84293;SDS011;74463;51.182;3.210;2024-01-30T03:57:50;17.08;;;9.98;;
84293;SDS011;74463;51.182;3.210;2024-01-30T04:00:17;16.50;;;10.18;;
84293;SDS011;74463;51.182;3.210;2024-01-30T04:02:45;16.92;;;9.60;;
84293;SDS011;74463;51.182;3.210;2024-01-30T04:05:14;12.90;;;9.23;;
84293;SDS011;74463;51.182;3.210;2024-01-30T04:07:41;17.45;;;9.25;;
84293;SDS011;74463;51.182;3.210;2024-01-30T04:10:09;15.93;;;9.07;;
84293;SDS011;74463;51.182;3.210;2024-01-30T04:12:37;14.23;;;9.52;;
84293;SDS011;74463;51.182;3.210;2024-01-30T04:15:05;13.95;;;9.65;;
84293;SDS011;74463;51.182;3.210;2024-01-30T04:17:34;18.30;;;10.05;;
84293;SDS011;74463;51.182;3.210;2024-01-30T04:20:01;17.48;;;9.23;;
84293;SDS011;74463;51.182;3.210;2024-01-30T04:22:31;14.67;;;9.03;;
84293;SDS011;74463;51.182;3.210;2024-01-30T04:27:25;15.98;;;9.40;;
84293;SDS011;74463;51.182;3.210;2024-01-30T04:29:53;15.68;;;9.27;;
84293;SDS011;74463;51.182;3.210;2024-01-30T04:32:20;15.50;;;8.40;;
84293;SDS011;74463;51.182;3.210;2024-01-30T04:34:48;21.88;;;8.95;;
84293;SDS011;74463;51.182;3.210;2024-01-30T04:37:15;18.95;;;9.45;;
84293;SDS011;74463;51.182;3.210;2024-01-30T04:39:44;18.67;;;8.75;;
84293;SDS011;74463;51.182;3.210;2024-01-30T04:42:12;14.85;;;8.40;;
84293;SDS011;74463;51.182;3.210;2024-01-30T04:44:39;14.95;;;9.63;;
84293;SDS011;74463;51.182;3.210;2024-01-30T04:47:07;15.45;;;8.98;;
84293;SDS011;74463;51.182;3.210;2024-01-30T04:49:36;14.07;;;8.77;;
84293;SDS011;74463;51.182;3.210;2024-01-30T04:52:04;14.30;;;8.57;;
84293;SDS011;74463;51.182;3.210;2024-01-30T04:54:32;15.93;;;8.05;;
84293;SDS011;74463;51.182;3.210;2024-01-30T04:57:01;15.27;;;8.52;;
84293;SDS011;74463;51.182;3.210;2024-01-30T04:59:30;16.02;;;8.50;;
84293;SDS011;74463;51.182;3.210;2024-01-30T05:01:58;16.85;;;7.95;;
84293;SDS011;74463;51.182;3.210;2024-01-30T05:04:25;13.13;;;8.20;;
84293;SDS011;74463;51.182;3.210;2024-01-30T05:06:53;14.50;;;9.07;;
84293;SDS011;74463;51.182;3.210;2024-01-30T05:09:20;18.92;;;8.77;;
84293;SDS011;74463;51.182;3.210;2024-01-30T05:11:48;14.73;;;8.35;;
84293;SDS011;74463;51.182;3.210;2024-01-30T05:14:17;16.80;;;7.93;;
84293;SDS011;74463;51.182;3.210;2024-01-30T05:19:12;19.73;;;7.95;;
84293;SDS011;74463;51.182;3.210;2024-01-30T05:21:40;15.85;;;8.15;;
84293;SDS011;74463;51.182;3.210;2024-01-30T05:24:08;14.10;;;8.88;;
84293;SDS011;74463;51.182;3.210;2024-01-30T05:26:35;16.60;;;8.65;;
84293;SDS011;74463;51.182;3.210;2024-01-30T05:29:03;17.20;;;8.80;;
84293;SDS011;74463;51.182;3.210;2024-01-30T05:31:33;14.10;;;8.27;;
84293;SDS011;74463;51.182;3.210;2024-01-30T05:34:00;16.83;;;9.63;;
84293;SDS011;74463;51.182;3.210;2024-01-30T05:36:28;16.17;;;8.35;;
84293;SDS011;74463;51.182;3.210;2024-01-30T05:38:56;13.18;;;8.38;;
84293;SDS011;74463;51.182;3.210;2024-01-30T05:41:23;15.07;;;8.57;;
84293;SDS011;74463;51.182;3.210;2024-01-30T05:43:53;14.35;;;8.20;;
84293;SDS011;74463;51.182;3.210;2024-01-30T05:46:21;19.48;;;9.15;;
84293;SDS011;74463;51.182;3.210;2024-01-30T05:48:50;17.98;;;8.57;;
84293;SDS011;74463;51.182;3.210;2024-01-30T05:51:18;13.70;;;8.75;;
84293;SDS011;74463;51.182;3.210;2024-01-30T05:53:45;17.40;;;8.95;;
84293;SDS011;74463;51.182;3.210;2024-01-30T05:56:12;17.00;;;7.90;;
84293;SDS011;74463;51.182;3.210;2024-01-30T05:58:40;16.38;;;9.25;;
84293;SDS011;74463;51.182;3.210;2024-01-30T06:01:08;14.35;;;8.73;;
84293;SDS011;74463;51.182;3.210;2024-01-30T06:03:36;17.45;;;8.88;;
84293;SDS011;74463;51.182;3.210;2024-01-30T06:06:06;21.77;;;9.88;;
84293;SDS011;74463;51.182;3.210;2024-01-30T06:08:33;18.40;;;9.38;;
84293;SDS011;74463;51.182;3.210;2024-01-30T06:11:01;16.85;;;11.82;;
84293;SDS011;74463;51.182;3.210;2024-01-30T06:13:28;18.77;;;11.82;;
84293;SDS011;74463;51.182;3.210;2024-01-30T06:15:57;15.57;;;10.13;;
84293;SDS011;74463;51.182;3.210;2024-01-30T06:18:24;22.08;;;10.40;;
84293;SDS011;74463;51.182;3.210;2024-01-30T06:20:54;19.52;;;10.77;;
84293;SDS011;74463;51.182;3.210;2024-01-30T06:23:23;14.48;;;9.55;;
84293;SDS011;74463;51.182;3.210;2024-01-30T06:25:50;15.77;;;8.98;;
84293;SDS011;74463;51.182;3.210;2024-01-30T06:28:18;19.05;;;9.32;;
84293;SDS011;74463;51.182;3.210;2024-01-30T06:30:45;19.10;;;9.10;;
84293;SDS011;74463;51.182;3.210;2024-01-30T06:33:12;14.70;;;8.63;;
84293;SDS011;74463;51.182;3.210;2024-01-30T06:35:40;17.65;;;8.88;;
84293;SDS011;74463;51.182;3.210;2024-01-30T06:38:08;16.85;;;8.50;;
84293;SDS011;74463;51.182;3.210;2024-01-30T06:40:37;18.05;;;9.13;;
84293;SDS011;74463;51.182;3.210;2024-01-30T06:43:04;17.73;;;9.93;;
84293;SDS011;74463;51.182;3.210;2024-01-30T06:45:33;13.70;;;8.55;;
84293;SDS011;74463;51.182;3.210;2024-01-30T06:48:00;15.57;;;8.75;;
84293;SDS011;74463;51.182;3.210;2024-01-30T06:50:28;16.83;;;8.93;;
84293;SDS011;74463;51.182;3.210;2024-01-30T06:52:55;16.10;;;8.25;;
84293;SDS011;74463;51.182;3.210;2024-01-30T06:55:23;14.65;;;8.90;;
84293;SDS011;74463;51.182;3.210;2024-01-30T06:57:52;18.92;;;9.07;;
84293;SDS011;74463;51.182;3.210;2024-01-30T07:00:19;15.48;;;9.43;;
84293;SDS011;74463;51.182;3.210;2024-01-30T07:05:15;16.35;;;9.25;;
84293;SDS011;74463;51.182;3.210;2024-01-30T07:07:43;15.93;;;9.13;;
84293;SDS011;74463;51.182;3.210;2024-01-30T07:10:10;14.68;;;9.18;;
84293;SDS011;74463;51.182;3.210;2024-01-30T07:12:38;16.38;;;8.60;;
84293;SDS011;74463;51.182;3.210;2024-01-30T07:15:07;15.38;;;8.65;;
84293;SDS011;74463;51.182;3.210;2024-01-30T07:17:35;15.15;;;9.57;;
84293;SDS011;74463;51.182;3.210;2024-01-30T07:20:03;17.17;;;10.07;;
84293;SDS011;74463;51.182;3.210;2024-01-30T07:22:32;17.52;;;9.93;;
84293;SDS011;74463;51.182;3.210;2024-01-30T07:25:00;18.80;;;9.80;;
84293;SDS011;74463;51.182;3.210;2024-01-30T07:27:27;19.75;;;9.80;;
84293;SDS011;74463;51.182;3.210;2024-01-30T07:29:55;14.10;;;9.02;;
84293;SDS011;74463;51.182;3.210;2024-01-30T07:32:24;16.15;;;8.40;;
84293;SDS011;74463;51.182;3.210;2024-01-30T07:34:51;14.23;;;8.93;;
84293;SDS011;74463;51.182;3.210;2024-01-30T07:37:20;19.85;;;9.18;;
84293;SDS011;74463;51.182;3.210;2024-01-30T07:39:47;21.65;;;9.75;;
84293;SDS011;74463;51.182;3.210;2024-01-30T07:42:15;16.50;;;8.90;;
84293;SDS011;74463;51.182;3.210;2024-01-30T07:44:42;16.92;;;8.48;;
84293;SDS011;74463;51.182;3.210;2024-01-30T07:47:10;16.02;;;9.10;;
84293;SDS011;74463;51.182;3.210;2024-01-30T07:49:41;14.07;;;8.55;;
84293;SDS011;74463;51.182;3.210;2024-01-30T07:52:09;17.33;;;8.75;;
84293;SDS011;74463;51.182;3.210;2024-01-30T07:54:48;17.70;;;9.18;;
84293;SDS011;74463;51.182;3.210;2024-01-30T07:57:16;18.63;;;8.35;;
84293;SDS011;74463;51.182;3.210;2024-01-30T07:59:43;14.20;;;7.85;;
84293;SDS011;74463;51.182;3.210;2024-01-30T08:02:11;16.77;;;7.72;;
84293;SDS011;74463;51.182;3.210;2024-01-30T08:04:39;16.13;;;7.90;;
84293;SDS011;74463;51.182;3.210;2024-01-30T08:07:08;13.15;;;7.18;;
84293;SDS011;74463;51.182;3.210;2024-01-30T08:09:36;17.70;;;7.53;;
84293;SDS011;74463;51.182;3.210;2024-01-30T08:12:04;14.15;;;5.90;;
84293;SDS011;74463;51.182;3.210;2024-01-30T08:14:32;13.10;;;5.43;;
84293;SDS011;74463;51.182;3.210;2024-01-30T08:17:00;9.60;;;5.00;;
84293;SDS011;74463;51.182;3.210;2024-01-30T08:19:27;14.95;;;4.75;;
84293;SDS011;74463;51.182;3.210;2024-01-30T08:21:57;7.33;;;3.67;;
84293;SDS011;74463;51.182;3.210;2024-01-30T08:26:52;11.90;;;3.35;;
84293;SDS011;74463;51.182;3.210;2024-01-30T08:29:19;10.60;;;3.50;;
84293;SDS011;74463;51.182;3.210;2024-01-30T08:31:47;6.22;;;2.95;;
84293;SDS011;74463;51.182;3.210;2024-01-30T08:34:15;11.00;;;3.13;;
84293;SDS011;74463;51.182;3.210;2024-01-30T08:36:42;11.23;;;3.40;;
84293;SDS011;74463;51.182;3.210;2024-01-30T08:39:12;11.13;;;3.10;;
84293;SDS011;74463;51.182;3.210;2024-01-30T08:41:40;16.13;;;3.45;;
84293;SDS011;74463;51.182;3.210;2024-01-30T08:44:07;7.70;;;3.00;;
84293;SDS011;74463;51.182;3.210;2024-01-30T08:46:36;7.97;;;2.75;;
84293;SDS011;74463;51.182;3.210;2024-01-30T08:49:03;12.05;;;3.92;;
84293;SDS011;74463;51.182;3.210;2024-01-30T08:51:31;8.60;;;2.80;;
84293;SDS011;74463;51.182;3.210;2024-01-30T08:53:59;8.73;;;3.10;;
84293;SDS011;74463;51.182;3.210;2024-01-30T08:56:28;8.43;;;2.83;;
84293;SDS011;74463;51.182;3.210;2024-01-30T08:58:55;9.15;;;2.53;;
84293;SDS011;74463;51.182;3.210;2024-01-30T09:01:22;9.63;;;2.67;;
84293;SDS011;74463;51.182;3.210;2024-01-30T09:03:51;7.40;;;2.70;;
84293;SDS011;74463;51.182;3.210;2024-01-30T09:06:19;13.27;;;2.78;;
84293;SDS011;74463;51.182;3.210;2024-01-30T09:08:46;5.03;;;2.10;;
84293;SDS011;74463;51.182;3.210;2024-01-30T09:11:14;4.60;;;2.10;;
84293;SDS011;74463;51.182;3.210;2024-01-30T09:13:43;6.75;;;2.10;;
84293;SDS011;74463;51.182;3.210;2024-01-30T09:16:11;5.00;;;2.00;;
84293;SDS011;74463;51.182;3.210;2024-01-30T09:18:39;5.50;;;2.03;;
84293;SDS011;74463;51.182;3.210;2024-01-30T09:21:06;3.83;;;1.33;;
84293;SDS011;74463;51.182;3.210;2024-01-30T09:23:34;7.43;;;2.40;;
84293;SDS011;74463;51.182;3.210;2024-01-30T09:26:01;6.65;;;1.88;;
84293;SDS011;74463;51.182;3.210;2024-01-30T09:28:28;5.85;;;1.60;;
84293;SDS011;74463;51.182;3.210;2024-01-30T09:30:57;6.03;;;1.60;;
84293;SDS011;74463;51.182;3.210;2024-01-30T09:33:25;4.28;;;1.60;;
84293;SDS011;74463;51.182;3.210;2024-01-30T09:35:53;5.95;;;1.40;;
84293;SDS011;74463;51.182;3.210;2024-01-30T09:38:20;4.68;;;1.85;;
84293;SDS011;74463;51.182;3.210;2024-01-30T09:40:49;5.35;;;1.55;;
84293;SDS011;74463;51.182;3.210;2024-01-30T09:43:22;5.90;;;1.42;;
84293;SDS011;74463;51.182;3.210;2024-01-30T09:45:51;4.57;;;1.77;;
84293;SDS011;74463;51.182;3.210;2024-01-30T09:48:22;3.25;;;1.85;;
84293;SDS011;74463;51.182;3.210;2024-01-30T09:53:17;3.47;;;1.65;;
84293;SDS011;74463;51.182;3.210;2024-01-30T09:55:45;6.37;;;1.87;;
84293;SDS011;74463;51.182;3.210;2024-01-30T09:58:13;2.80;;;1.48;;
84293;SDS011;74463;51.182;3.210;2024-01-30T10:00:41;3.20;;;1.45;;
84293;SDS011;74463;51.182;3.210;2024-01-30T10:03:09;4.93;;;1.83;;
84293;SDS011;74463;51.182;3.210;2024-01-30T10:05:38;4.47;;;1.60;;
84293;SDS011;74463;51.182;3.210;2024-01-30T10:08:07;4.22;;;1.70;;
84293;SDS011;74463;51.182;3.210;2024-01-30T10:10:35;5.47;;;1.75;;
84293;SDS011;74463;51.182;3.210;2024-01-30T10:13:03;7.82;;;1.80;;
84293;SDS011;74463;51.182;3.210;2024-01-30T10:15:30;4.03;;;1.50;;
84293;SDS011;74463;51.182;3.210;2024-01-30T10:18:00;6.22;;;1.60;;
84293;SDS011;74463;51.182;3.210;2024-01-30T10:20:28;5.85;;;1.85;;
84293;SDS011;74463;51.182;3.210;2024-01-30T10:22:57;6.63;;;1.70;;
84293;SDS011;74463;51.182;3.210;2024-01-30T10:27:55;2.78;;;1.35;;
84293;SDS011;74463;51.182;3.210;2024-01-30T10:30:23;8.18;;;2.28;;
84293;SDS011;74463;51.182;3.210;2024-01-30T10:32:51;3.42;;;1.65;;
84293;SDS011;74463;51.182;3.210;2024-01-30T10:35:18;6.20;;;1.95;;
84293;SDS011;74463;51.182;3.210;2024-01-30T10:37:46;4.30;;;1.83;;
84293;SDS011;74463;51.182;3.210;2024-01-30T10:40:16;9.98;;;1.73;;
84293;SDS011;74463;51.182;3.210;2024-01-30T10:42:44;2.63;;;1.48;;
84293;SDS011;74463;51.182;3.210;2024-01-30T10:45:12;5.95;;;1.55;;
84293;SDS011;74463;51.182;3.210;2024-01-30T10:47:43;4.68;;;1.98;;
84293;SDS011;74463;51.182;3.210;2024-01-30T10:50:15;5.32;;;1.40;;
84293;SDS011;74463;51.182;3.210;2024-01-30T10:52:43;4.18;;;1.90;;
84293;SDS011;74463;51.182;3.210;2024-01-30T10:55:11;6.07;;;1.60;;
84293;SDS011;74463;51.182;3.210;2024-01-30T10:57:40;5.10;;;1.80;;
84293;SDS011;74463;51.182;3.210;2024-01-30T11:00:08;3.47;;;1.50;;
84293;SDS011;74463;51.182;3.210;2024-01-30T11:02:38;4.85;;;1.92;;
84293;SDS011;74463;51.182;3.210;2024-01-30T11:07:34;4.32;;;1.80;;
84293;SDS011;74463;51.182;3.210;2024-01-30T11:10:02;9.98;;;2.28;;
84293;SDS011;74463;51.182;3.210;2024-01-30T11:12:33;6.07;;;1.85;;
84293;SDS011;74463;51.182;3.210;2024-01-30T11:15:08;9.50;;;2.08;;
84293;SDS011;74463;51.182;3.210;2024-01-30T11:17:40;6.65;;;2.17;;
84293;SDS011;74463;51.182;3.210;2024-01-30T11:20:11;7.43;;;2.03;;
84293;SDS011;74463;51.182;3.210;2024-01-30T11:22:42;5.10;;;1.80;;
84293;SDS011;74463;51.182;3.210;2024-01-30T11:25:11;6.07;;;2.30;;
84293;SDS011;74463;51.182;3.210;2024-01-30T11:27:39;4.57;;;2.08;;
84293;SDS011;74463;51.182;3.210;2024-01-30T11:30:10;8.13;;;2.05;;
84293;SDS011;74463;51.182;3.210;2024-01-30T11:32:37;3.45;;;1.73;;
84293;SDS011;74463;51.182;3.210;2024-01-30T11:35:05;6.63;;;1.85;;
84293;SDS011;74463;51.182;3.210;2024-01-30T11:37:36;8.05;;;2.20;;
84293;SDS011;74463;51.182;3.210;2024-01-30T11:40:05;7.47;;;1.80;;
84293;SDS011;74463;51.182;3.210;2024-01-30T11:42:34;6.38;;;2.03;;
84293;SDS011;74463;51.182;3.210;2024-01-30T11:45:05;5.20;;;2.03;;
84293;SDS011;74463;51.182;3.210;2024-01-30T11:47:36;8.47;;;1.70;;
84293;SDS011;74463;51.182;3.210;2024-01-30T11:50:03;6.70;;;2.10;;
84293;SDS011;74463;51.182;3.210;2024-01-30T11:52:33;5.40;;;1.60;;
84293;SDS011;74463;51.182;3.210;2024-01-30T11:55:01;6.18;;;1.75;;
84293;SDS011;74463;51.182;3.210;2024-01-30T11:57:29;6.77;;;2.20;;
84293;SDS011;74463;51.182;3.210;2024-01-30T11:59:56;7.78;;;2.20;;
84293;SDS011;74463;51.182;3.210;2024-01-30T12:02:23;3.53;;;1.73;;
84293;SDS011;74463;51.182;3.210;2024-01-30T12:04:52;6.05;;;2.15;;
84293;SDS011;74463;51.182;3.210;2024-01-30T12:09:52;5.65;;;1.95;;
84293;SDS011;74463;51.182;3.210;2024-01-30T12:12:21;3.03;;;2.33;;
84293;SDS011;74463;51.182;3.210;2024-01-30T12:14:50;2.33;;;1.63;;
84293;SDS011;74463;51.182;3.210;2024-01-30T12:17:25;8.40;;;2.75;;
84293;SDS011;74463;51.182;3.210;2024-01-30T12:20:03;7.07;;;2.42;;
84293;SDS011;74463;51.182;3.210;2024-01-30T12:22:32;6.10;;;2.72;;
84293;SDS011;74463;51.182;3.210;2024-01-30T12:25:04;5.63;;;2.58;;
84293;SDS011;74463;51.182;3.210;2024-01-30T12:27:31;7.13;;;2.50;;
84293;SDS011;74463;51.182;3.210;2024-01-30T12:29:58;7.57;;;2.83;;
84293;SDS011;74463;51.182;3.210;2024-01-30T12:32:26;5.88;;;2.38;;
84293;SDS011;74463;51.182;3.210;2024-01-30T12:34:54;3.90;;;2.50;;
84293;SDS011;74463;51.182;3.210;2024-01-30T12:37:24;10.93;;;2.42;;
84293;SDS011;74463;51.182;3.210;2024-01-30T12:42:20;5.57;;;2.08;;
84293;SDS011;74463;51.182;3.210;2024-01-30T12:44:48;4.68;;;2.00;;
84293;SDS011;74463;51.182;3.210;2024-01-30T12:47:15;5.22;;;2.40;;
84293;SDS011;74463;51.182;3.210;2024-01-30T12:49:43;4.88;;;2.38;;
84293;SDS011;74463;51.182;3.210;2024-01-30T12:52:10;7.15;;;2.65;;
84293;SDS011;74463;51.182;3.210;2024-01-30T12:54:39;7.20;;;2.75;;
84293;SDS011;74463;51.182;3.210;2024-01-30T12:57:07;5.57;;;2.72;;
84293;SDS011;74463;51.182;3.210;2024-01-30T12:59:35;11.25;;;3.50;;
84293;SDS011;74463;51.182;3.210;2024-01-30T13:02:02;8.55;;;3.00;;
84293;SDS011;74463;51.182;3.210;2024-01-30T13:04:30;6.38;;;2.53;;
84293;SDS011;74463;51.182;3.210;2024-01-30T13:06:58;7.05;;;2.50;;
84293;SDS011;74463;51.182;3.210;2024-01-30T13:09:26;6.97;;;2.53;;
84293;SDS011;74463;51.182;3.210;2024-01-30T13:11:55;4.85;;;2.60;;
84293;SDS011;74463;51.182;3.210;2024-01-30T13:14:22;5.03;;;2.45;;
84293;SDS011;74463;51.182;3.210;2024-01-30T13:16:50;4.20;;;2.05;;
84293;SDS011;74463;51.182;3.210;2024-01-30T13:19:18;4.72;;;2.13;;
84293;SDS011;74463;51.182;3.210;2024-01-30T13:21:45;6.47;;;2.30;;
84293;SDS011;74463;51.182;3.210;2024-01-30T13:24:13;5.45;;;2.15;;
84293;SDS011;74463;51.182;3.210;2024-01-30T13:26:42;4.80;;;2.50;;
84293;SDS011;74463;51.182;3.210;2024-01-30T13:29:11;6.28;;;1.98;;
84293;SDS011;74463;51.182;3.210;2024-01-30T13:31:38;6.22;;;2.13;;
84293;SDS011;74463;51.182;3.210;2024-01-30T13:34:06;5.05;;;2.00;;
84293;SDS011;74463;51.182;3.210;2024-01-30T13:36:33;5.50;;;2.40;;
84293;SDS011;74463;51.182;3.210;2024-01-30T13:39:01;10.65;;;2.75;;
84293;SDS011;74463;51.182;3.210;2024-01-30T13:41:30;4.97;;;2.15;;
84293;SDS011;74463;51.182;3.210;2024-01-30T13:43:57;3.15;;;1.80;;
84293;SDS011;74463;51.182;3.210;2024-01-30T13:46:26;8.48;;;2.38;;
84293;SDS011;74463;51.182;3.210;2024-01-30T13:48:54;3.05;;;1.92;;
84293;SDS011;74463;51.182;3.210;2024-01-30T13:51:21;7.45;;;2.40;;
84293;SDS011;74463;51.182;3.210;2024-01-30T13:53:48;5.07;;;2.08;;
84293;SDS011;74463;51.182;3.210;2024-01-30T13:56:16;5.15;;;2.30;;
84293;SDS011;74463;51.182;3.210;2024-01-30T13:58:43;4.68;;;2.13;;
84293;SDS011;74463;51.182;3.210;2024-01-30T14:01:11;4.32;;;2.22;;
84293;SDS011;74463;51.182;3.210;2024-01-30T14:03:40;3.78;;;2.33;;
84293;SDS011;74463;51.182;3.210;2024-01-30T14:06:08;5.55;;;1.88;;
84293;SDS011;74463;51.182;3.210;2024-01-30T14:08:35;6.22;;;2.42;;
84293;SDS011;74463;51.182;3.210;2024-01-30T14:11:03;6.43;;;2.63;;
84293;SDS011;74463;51.182;3.210;2024-01-30T14:13:31;6.15;;;2.50;;
84293;SDS011;74463;51.182;3.210;2024-01-30T14:15:58;8.18;;;2.88;;
84293;SDS011;74463;51.182;3.210;2024-01-30T14:18:26;5.25;;;2.72;;
84293;SDS011;74463;51.182;3.210;2024-01-30T14:20:55;5.22;;;2.22;;
84293;SDS011;74463;51.182;3.210;2024-01-30T14:23:22;7.00;;;2.53;;
84293;SDS011;74463;51.182;3.210;2024-01-30T14:25:50;6.53;;;2.85;;
84293;SDS011;74463;51.182;3.210;2024-01-30T14:28:18;6.70;;;3.00;;
84293;SDS011;74463;51.182;3.210;2024-01-30T14:30:45;6.18;;;2.40;;
84293;SDS011;74463;51.182;3.210;2024-01-30T14:33:13;5.53;;;2.80;;
84293;SDS011;74463;51.182;3.210;2024-01-30T14:35:41;5.25;;;2.75;;
84293;SDS011;74463;51.182;3.210;2024-01-30T14:38:10;6.53;;;2.80;;
84293;SDS011;74463;51.182;3.210;2024-01-30T14:40:38;6.30;;;2.72;;
84293;SDS011;74463;51.182;3.210;2024-01-30T14:43:06;4.22;;;2.40;;
84293;SDS011;74463;51.182;3.210;2024-01-30T14:45:34;5.28;;;2.75;;
84293;SDS011;74463;51.182;3.210;2024-01-30T14:48:01;4.45;;;2.60;;
84293;SDS011;74463;51.182;3.210;2024-01-30T14:50:28;5.40;;;2.95;;
84293;SDS011;74463;51.182;3.210;2024-01-30T14:52:56;6.90;;;2.92;;
84293;SDS011;74463;51.182;3.210;2024-01-30T14:55:24;5.00;;;2.83;;
84293;SDS011;74463;51.182;3.210;2024-01-30T14:57:52;5.47;;;2.72;;
84293;SDS011;74463;51.182;3.210;2024-01-30T15:00:19;7.80;;;3.00;;
84293;SDS011;74463;51.182;3.210;2024-01-30T15:02:47;6.55;;;3.00;;
84293;SDS011;74463;51.182;3.210;2024-01-30T15:05:15;12.75;;;4.28;;
84293;SDS011;74463;51.182;3.210;2024-01-30T15:07:42;6.30;;;3.00;;
84293;SDS011;74463;51.182;3.210;2024-01-30T15:10:10;5.88;;;2.80;;
84293;SDS011;74463;51.182;3.210;2024-01-30T15:12:39;6.20;;;3.13;;
84293;SDS011;74463;51.182;3.210;2024-01-30T15:15:07;5.18;;;2.60;;
84293;SDS011;74463;51.182;3.210;2024-01-30T15:17:34;8.15;;;3.05;;
84293;SDS011;74463;51.182;3.210;2024-01-30T15:20:02;8.90;;;3.40;;
84293;SDS011;74463;51.182;3.210;2024-01-30T15:22:30;7.93;;;3.65;;
84293;SDS011;74463;51.182;3.210;2024-01-30T15:24:58;8.68;;;3.75;;
84293;SDS011;74463;51.182;3.210;2024-01-30T15:27:25;7.43;;;3.75;;